sensor_id;sensor_type;location;lat;lon;timestamp;pressure;altitude;pressure_sealevel;temperature;humidity
39309;BME280;26019;47.510;19.122;2022-10-16T00:00:13;100693.09;;;14.06;100.00
39309;BME280;26019;47.510;19.122;2022-10-16T00:10:21;100683.72;;;13.93;100.00
39309;BME280;26019;47.510;19.122;2022-10-16T00:20:24;100670.81;;;13.89;100.00
39309;BME280;26019;47.510;19.122;2022-10-16T00:30:26;100687.31;;;13.85;100.00
39309;BME280;26019;47.510;19.122;2022-10-16T00:40:29;100710.69;;;13.85;100.00
39309;BME280;26019;47.510;19.122;2022-10-16T00:50:33;100703.91;;;13.75;100.00
39309;BME280;26019;47.510;19.122;2022-10-16T01:00:36;100718.59;;;13.74;100.00
39309;BME280;26019;47.510;19.122;2022-10-16T01:10:55;100724.78;;;13.66;100.00
39309;BME280;26019;47.510;19.122;2022-10-16T01:31:09;100734.69;;;13.29;100.00
39309;BME280;26019;47.510;19.122;2022-10-16T01:41:17;100723.81;;;12.92;100.00
39309;BME280;26019;47.510;19.122;2022-10-16T01:51:21;100746.66;;;12.43;100.00
39309;BME280;26019;47.510;19.122;2022-10-16T02:01:27;100754.66;;;11.95;100.00
39309;BME280;26019;47.510;19.122;2022-10-16T02:11:31;100770.34;;;11.59;100.00
39309;BME280;26019;47.510;19.122;2022-10-16T02:21:47;100767.81;;;11.33;100.00
39309;BME280;26019;47.510;19.122;2022-10-16T02:31:56;100764.44;;;11.01;100.00
39309;BME280;26019;47.510;19.122;2022-10-16T02:42:00;100772.16;;;10.80;100.00
39309;BME280;26019;47.510;19.122;2022-10-16T02:52:02;100772.19;;;10.56;100.00
39309;BME280;26019;47.510;19.122;2022-10-16T03:02:04;100779.91;;;10.47;100.00
39309;BME280;26019;47.510;19.122;2022-10-16T03:12:06;100784.19;;;10.39;100.00
39309;BME280;26019;47.510;19.122;2022-10-16T03:22:08;100797.00;;;10.06;100.00
39309;BME280;26019;47.510;19.122;2022-10-16T03:32:09;100808.97;;;9.92;100.00
39309;BME280;26019;47.510;19.122;2022-10-16T03:42:11;100823.53;;;9.79;100.00
39309;BME280;26019;47.510;19.122;2022-10-16T03:52:16;100825.22;;;9.74;100.00
39309;BME280;26019;47.510;19.122;2022-10-16T04:02:19;100819.97;;;9.60;100.00
39309;BME280;26019;47.510;19.122;2022-10-16T04:12:21;100832.78;;;9.43;100.00
39309;BME280;26019;47.510;19.122;2022-10-16T04:22:22;100825.78;;;9.26;100.00
39309;BME280;26019;47.510;19.122;2022-10-16T04:32:24;100835.19;;;9.18;100.00
39309;BME280;26019;47.510;19.122;2022-10-16T04:42:26;100848.13;;;9.24;100.00
39309;BME280;26019;47.510;19.122;2022-10-16T04:52:28;100850.47;;;8.98;100.00
39309;BME280;26019;47.510;19.122;2022-10-16T05:02:30;100855.53;;;8.87;100.00
39309;BME280;26019;47.510;19.122;2022-10-16T05:12:33;100865.91;;;8.96;100.00
39309;BME280;26019;47.510;19.122;2022-10-16T05:22:34;100864.16;;;8.89;100.00
39309;BME280;26019;47.510;19.122;2022-10-16T05:32:36;100876.34;;;9.07;100.00
39309;BME280;26019;47.510;19.122;2022-10-16T05:42:46;100898.78;;;9.20;100.00
39309;BME280;26019;47.510;19.122;2022-10-16T05:52:54;100898.06;;;9.35;100.00
39309;BME280;26019;47.510;19.122;2022-10-16T06:02:58;100892.44;;;9.91;100.00
39309;BME280;26019;47.510;19.122;2022-10-16T06:12:59;100922.81;;;10.37;100.00
39309;BME280;26019;47.510;19.122;2022-10-16T06:23:04;100922.13;;;10.83;100.00
39309;BME280;26019;47.510;19.122;2022-10-16T06:33:05;100923.06;;;11.17;100.00
39309;BME280;26019;47.510;19.122;2022-10-16T06:43:08;100956.75;;;11.48;100.00
39309;BME280;26019;47.510;19.122;2022-10-16T06:53:14;100973.13;;;11.75;100.00
39309;BME280;26019;47.510;19.122;2022-10-16T07:03:20;100976.56;;;12.12;100.00
39309;BME280;26019;47.510;19.122;2022-10-16T07:13:22;100988.56;;;12.50;100.00
39309;BME280;26019;47.510;19.122;2022-10-16T07:23:25;100987.63;;;12.69;100.00
39309;BME280;26019;47.510;19.122;2022-10-16T07:33:32;101020.31;;;13.11;100.00
39309;BME280;26019;47.510;19.122;2022-10-16T07:43:34;101030.66;;;13.14;100.00
39309;BME280;26019;47.510;19.122;2022-10-16T07:53:37;101040.53;;;13.96;95.78
39309;BME280;26019;47.510;19.122;2022-10-16T08:03:44;101030.06;;;14.90;87.47
39309;BME280;26019;47.510;19.122;2022-10-16T08:13:46;101031.69;;;15.58;82.76
39309;BME280;26019;47.510;19.122;2022-10-16T08:23:49;101059.16;;;16.33;72.32
39309;BME280;26019;47.510;19.122;2022-10-16T08:33:58;101065.47;;;16.68;69.82
39309;BME280;26019;47.510;19.122;2022-10-16T08:54:43;101055.63;;;18.00;61.25
39309;BME280;26019;47.510;19.122;2022-10-16T09:25:28;101061.56;;;19.62;52.47
39309;BME280;26019;47.510;19.122;2022-10-16T09:35:43;101069.81;;;20.30;51.40
39309;BME280;26019;47.510;19.122;2022-10-16T09:45:58;101074.81;;;21.79;46.99
39309;BME280;26019;47.510;19.122;2022-10-16T09:56:01;101080.88;;;22.22;44.52
39309;BME280;26019;47.510;19.122;2022-10-16T10:06:30;101077.53;;;22.19;44.37
39309;BME280;26019;47.510;19.122;2022-10-16T10:16:38;101087.06;;;23.95;40.97
39309;BME280;26019;47.510;19.122;2022-10-16T10:48:03;101054.47;;;26.37;35.84
39309;BME280;26019;47.510;19.122;2022-10-16T10:58:24;101061.94;;;27.03;33.27
39309;BME280;26019;47.510;19.122;2022-10-16T11:19:05;101052.47;;;27.81;31.87
39309;BME280;26019;47.510;19.122;2022-10-16T11:29:23;101039.41;;;28.81;30.28
39309;BME280;26019;47.510;19.122;2022-10-16T11:39:27;101041.84;;;29.21;28.79
39309;BME280;26019;47.510;19.122;2022-10-16T11:49:31;101031.59;;;31.02;26.24
39309;BME280;26019;47.510;19.122;2022-10-16T11:59:47;101032.59;;;31.87;24.73
39309;BME280;26019;47.510;19.122;2022-10-16T12:30:22;101016.97;;;33.15;22.97
39309;BME280;26019;47.510;19.122;2022-10-16T12:40:33;101004.63;;;33.44;22.62
39309;BME280;26019;47.510;19.122;2022-10-16T12:50:38;101016.28;;;32.84;23.10
39309;BME280;26019;47.510;19.122;2022-10-16T13:11:22;101039.00;;;33.58;21.37
39309;BME280;26019;47.510;19.122;2022-10-16T13:21:35;101028.72;;;33.44;21.54
39309;BME280;26019;47.510;19.122;2022-10-16T13:31:40;101029.47;;;35.51;19.93
39309;BME280;26019;47.510;19.122;2022-10-16T13:41:42;101043.00;;;34.77;20.09
39309;BME280;26019;47.510;19.122;2022-10-16T13:52:15;101042.00;;;37.08;17.72
39309;BME280;26019;47.510;19.122;2022-10-16T14:02:31;101055.44;;;34.50;20.39
39309;BME280;26019;47.510;19.122;2022-10-16T14:12:39;101053.28;;;32.38;22.67
39309;BME280;26019;47.510;19.122;2022-10-16T14:22:42;101043.03;;;31.91;22.79
39309;BME280;26019;47.510;19.122;2022-10-16T14:33:01;101047.91;;;32.79;22.40
39309;BME280;26019;47.510;19.122;2022-10-16T14:43:04;101051.63;;;23.47;34.72
39309;BME280;26019;47.510;19.122;2022-10-16T14:53:11;101066.25;;;21.74;39.25
39309;BME280;26019;47.510;19.122;2022-10-16T15:03:22;101056.41;;;20.63;42.18
39309;BME280;26019;47.510;19.122;2022-10-16T15:14:01;101062.72;;;20.07;43.98
39309;BME280;26019;47.510;19.122;2022-10-16T15:24:19;101086.06;;;19.61;46.30
39309;BME280;26019;47.510;19.122;2022-10-16T15:34:31;101046.31;;;18.88;48.00
39309;BME280;26019;47.510;19.122;2022-10-16T15:44:43;101084.34;;;18.70;50.75
39309;BME280;26019;47.510;19.122;2022-10-16T15:54:49;101091.94;;;18.13;56.70
39309;BME280;26019;47.510;19.122;2022-10-16T16:04:55;101107.28;;;17.53;60.12
39309;BME280;26019;47.510;19.122;2022-10-16T16:14:59;101128.44;;;16.95;69.12
39309;BME280;26019;47.510;19.122;2022-10-16T16:25:06;101134.66;;;16.42;76.95
39309;BME280;26019;47.510;19.122;2022-10-16T16:35:08;101150.88;;;16.05;79.94
39309;BME280;26019;47.510;19.122;2022-10-16T16:45:10;101152.28;;;15.66;89.04
39309;BME280;26019;47.510;19.122;2022-10-16T16:55:11;101178.63;;;15.43;93.97
39309;BME280;26019;47.510;19.122;2022-10-16T17:05:13;101175.53;;;15.12;95.43
39309;BME280;26019;47.510;19.122;2022-10-16T17:15:15;101183.53;;;14.93;100.00
39309;BME280;26019;47.510;19.122;2022-10-16T17:25:17;101220.94;;;14.86;100.00
39309;BME280;26019;47.510;19.122;2022-10-16T17:35:41;101219.31;;;14.69;100.00
39309;BME280;26019;47.510;19.122;2022-10-16T17:45:45;101235.91;;;14.56;100.00
39309;BME280;26019;47.510;19.122;2022-10-16T17:55:48;101255.06;;;14.39;100.00
39309;BME280;26019;47.510;19.122;2022-10-16T18:05:54;101254.34;;;14.22;100.00
39309;BME280;26019;47.510;19.122;2022-10-16T18:16:09;101259.50;;;14.26;100.00
39309;BME280;26019;47.510;19.122;2022-10-16T18:26:18;101267.28;;;14.26;100.00
39309;BME280;26019;47.510;19.122;2022-10-16T18:36:33;101271.72;;;14.10;100.00
39309;BME280;26019;47.510;19.122;2022-10-16T18:46:40;101272.75;;;13.72;100.00
39309;BME280;26019;47.510;19.122;2022-10-16T18:56:46;101252.91;;;13.37;100.00
39309;BME280;26019;47.510;19.122;2022-10-16T19:06:54;101278.03;;;13.28;100.00
39309;BME280;26019;47.510;19.122;2022-10-16T19:16:58;101291.03;;;13.16;100.00
39309;BME280;26019;47.510;19.122;2022-10-16T19:27:01;101291.06;;;12.88;100.00
39309;BME280;26019;47.510;19.122;2022-10-16T19:37:04;101293.63;;;12.66;100.00
39309;BME280;26019;47.510;19.122;2022-10-16T19:47:15;101318.72;;;12.58;100.00
39309;BME280;26019;47.510;19.122;2022-10-16T19:57:23;101326.44;;;12.39;100.00
39309;BME280;26019;47.510;19.122;2022-10-16T20:07:25;101346.22;;;12.13;100.00
39309;BME280;26019;47.510;19.122;2022-10-16T20:17:31;101348.78;;;12.05;100.00
39309;BME280;26019;47.510;19.122;2022-10-16T20:27:33;101379.88;;;12.08;100.00
39309;BME280;26019;47.510;19.122;2022-10-16T20:37:35;101392.69;;;11.85;100.00
39309;BME280;26019;47.510;19.122;2022-10-16T20:47:36;101395.25;;;11.83;100.00
39309;BME280;26019;47.510;19.122;2022-10-16T20:57:38;101422.75;;;11.67;100.00
39309;BME280;26019;47.510;19.122;2022-10-16T21:07:41;101420.09;;;11.55;100.00
39309;BME280;26019;47.510;19.122;2022-10-16T21:17:43;101422.59;;;11.44;100.00
39309;BME280;26019;47.510;19.122;2022-10-16T21:27:45;101430.31;;;11.38;100.00
39309;BME280;26019;47.510;19.122;2022-10-16T21:37:48;101430.06;;;11.11;100.00
39309;BME280;26019;47.510;19.122;2022-10-16T21:47:50;101435.19;;;11.03;100.00
39309;BME280;26019;47.510;19.122;2022-10-16T21:57:52;101434.09;;;10.83;100.00
39309;BME280;26019;47.510;19.122;2022-10-16T22:07:54;101444.34;;;10.76;100.00
39309;BME280;26019;47.510;19.122;2022-10-16T22:17:55;101458.81;;;10.59;100.00
39309;BME280;26019;47.510;19.122;2022-10-16T22:27:57;101467.94;;;10.34;100.00
39309;BME280;26019;47.510;19.122;2022-10-16T22:37:58;101458.41;;;10.29;100.00
39309;BME280;26019;47.510;19.122;2022-10-16T22:48:01;101455.59;;;10.12;100.00
39309;BME280;26019;47.510;19.122;2022-10-16T22:58:09;101480.69;;;10.21;100.00
39309;BME280;26019;47.510;19.122;2022-10-16T23:08:11;101483.78;;;9.98;100.00
39309;BME280;26019;47.510;19.122;2022-10-16T23:18:13;101493.06;;;9.85;100.00
39309;BME280;26019;47.510;19.122;2022-10-16T23:28:15;101491.16;;;9.72;100.00
39309;BME280;26019;47.510;19.122;2022-10-16T23:38:16;101503.91;;;9.64;100.00
39309;BME280;26019;47.510;19.122;2022-10-16T23:48:18;101521.06;;;9.59;100.00
39309;BME280;26019;47.510;19.122;2022-10-16T23:58:27;101508.84;;;9.50;100.00
